Архив погоды в Карасуке

Метеограмма Карасук
Вторник, 19 Июня
Время местн. Темп Ветер Видим Явления Облачность нижн/средн/верх Атм. давл. Влжн Точка росы ВНГО R Сост. почвы Tg s
Напр Скр Прв ур.ст ур.м изм
04:00 +12.7° В,С-В 2 - 50 км - ясно 740 750 -1.1 87% +10.6° более 2.5 км - - - -
01:00 +13.1° С 1 - более 50 км - переменная облачность 741 752 -0.6 84% +10.4° более 2.5 км - - - -
Понедельник, 18 Июня
Время местн. Темп Ветер Видим Явления Облачность нижн/средн/верх Атм. давл. Влжн Точка росы ВНГО R Сост. почвы Tg s
Напр Скр Прв ур.ст ур.м изм
22:00 +17° С-З 1 - более 50 км - переменная облачность 742 752 +0.1 68% +11° 600 м - - - -
19:00 +20° С,С-З 5 10 более 50 км - переменная облачность 742 752 +0.2 52% +9.9° 600 м 0 - - -
16:00 +22.8° С-З 5 - более 50 км - облачно 742 752 -0.6 49% +11.5° 600 м - - - -
13:00 +22° С 2 - более 50 км - облачно 742 752 +0.3 46% +10° 1 км - - - -
10:00 +16.6° С-В 3 - 50 км - преимущественно облачно 742 752 -1.4 69% +10.9° 1 км - - - -
07:00 +13.3° С-З 1 - 50 км - переменная облачность 743 754 0 85% +10.9° 1 км 0 Сухая (без трещин) - -
04:00 +12.3° С-З 1 - 50 км - переменная облачность 743 754 -0.5 84% +9.7° более 2.5 км - - - -
01:00 +14.2° С-В 3 - 50 км - переменная облачность 744 754 +0.7 78% +10.4° - - - - -
Воскресенье, 17 Июня
Время местн. Темп Ветер Видим Явления Облачность нижн/средн/верх Атм. давл. Влжн Точка росы ВНГО R Сост. почвы Tg s
Напр Скр Прв ур.ст ур.м изм
22:00 +15.6° С 3 - 50 км - переменная облачность 743 753 +1.6 71% +10.3° более 2.5 км - - - -
19:00 +26.6° Ю-В 2 - 50 км - облачно с прояснениями 742 751 -1.7 38% +11.2° 600 м 0 - - -
16:00 +25.1° В,Ю-В 2 - 50 км - переменная облачность 743 753 -1.3 45% +12.4° 600 м - - - -
13:00 +21.6° С-В 2 - более 50 км - облачно с прояснениями 745 755 -1.1 54% +11.8° 600 м - - - -
10:00 +17.5° Ю-В 1 - 50 км - облачно с прояснениями 746 756 -0.4 70% +12° 600 м - - - -
07:00 +13.3° Ю-В 2 - 50 км небо без изменений {ливневые осадки} переменная облачность 746 756 -0.7 91% +11.9° 1 км 1 Влажная (без луж) - -
04:00 +14° З 1 - 50 км небо без изменений {ливневые осадки} облачно 747 757 -0.5 84% +11.4° 600 м - - - -
01:00 +17.2° Ю-З 4 - более 50 км - облачно 747 757 +0.2 62% +9.8° 600 м - - - -
Суббота, 16 Июня
Время местн. Темп Ветер Видим Явления Облачность нижн/средн/верх Атм. давл. Влжн Точка росы ВНГО R Сост. почвы Tg s
Напр Скр Прв ур.ст ур.м изм
22:00 +17.4° Ю-З 2 - более 50 км - преимущественно облачно 747 757 +0.2 60% +9.6° 1 км - - - -
19:00 +21.1° З 4 - более 50 км - переменная облачность 747 757 -0.2 48% +9.8° 600 м 5 - - -
16:00 +20.8° Ю-З 3 - более 50 км - облачно 747 757 +0.2 47% +9.1° более 2.5 км - - - -
13:00 +19.1° С-З 2 - более 50 км небо без изменений {ливневые осадки} переменная облачность 747 757 -0.1 55% +9.8° более 2.5 км - - - -
10:00 +13.5° С-З 2 - 10 км слабый ливневый дождь облачно 747 757 +1.1 87% +11.3° 600 м - - - -
07:00 +16.3° З 4 - более 50 км небо без изменений {ливневые осадки} облачно 746 756 +0.2 75% +11.8° 600 м 0.3 Влажная (без луж) +16° -
04:00 +18.1° З 4 - более 50 км - облачно 746 756 -0.1 61% +10.4° 600 м - - - -
01:00 +18° штиль 0 - 50 км - преимущественно облачно 746 756 +0.2 68% +12.1° - - - - -